ESNX

Arvidsjaur Airport

Arvidsjaur, Sweden
METAR ESNX 220020Z AUTO 30002KT 0600 R30/P2000N BR NCD M29/M33 Q1024
Observed Flight Rules
Feb-22 @ 00:20 UTC (4 hours ago) Instrument Flight Rules
Wind Visibility Clouds Conditions
300° at 2 knots 595 meters
  • Clear skies
  • Mist
Temperatures Readings
Current -29°C / -20°F
Dewpoint -33°C / -27°F
Humidity 68%
Altimeter 30.24" Hg
Pressure 1024 hPa
Elevation 379
METAR ESNX 220020Z AUTO 30002KT 0600 R30/P2000N BR NCD M29/M33 Q1024
Observed Flight Rules
Feb-22 @ 00:20 UTC
(4 hours ago)
LIFR
Wind Visibility
300° at 2 knots 595 meters
Clouds
  • Clear skies
Conditions
  • Mist
Temperature Dewpoint
-29°C / -20°F -33°C / -27°F
Humidity Altimeter Pressure
68% 30.24" Hg 1024 hPa